Time;durP1;ratioP1;P1;durP2;ratioP2;P2;SDS_P1;SDS_P2;PMS_P1;PMS_P2;Temp;Humidity;BMP_temperature;BMP_pressure;BME280_temperature;BME280_humidity;BME280_pressure;Samples;Min_cycle;Max_cycle;Signal;HPM_P1;HPM_P2
2022/04/10 00:01:29;;;;;;;12.00;2.97;;;3.60;99.90;;;;;;5030170;28;20171;-52
2022/04/10 00:03:56;;;;;;;13.77;3.43;;;3.60;99.90;;;;;;5030354;28;20513;-53
2022/04/10 00:06:23;;;;;;;14.40;2.70;;;3.50;99.90;;;;;;5030097;28;20465;-52
2022/04/10 00:08:48;;;;;;;10.57;2.80;;;3.40;99.90;;;;;;5029480;28;20434;-53
2022/04/10 00:11:14;;;;;;;11.30;2.93;;;3.40;99.90;;;;;;5030084;28;20430;-53
2022/04/10 00:13:39;;;;;;;11.73;3.00;;;3.30;99.90;;;;;;5030161;28;20679;-52
2022/04/10 00:16:05;;;;;;;16.47;3.20;;;3.20;99.90;;;;;;5027515;28;20222;-52
2022/04/10 00:18:31;;;;;;;11.73;2.20;;;3.10;99.90;;;;;;5012000;28;20183;-52
2022/04/10 00:20:57;;;;;;;8.40;2.50;;;3.10;99.90;;;;;;5030404;28;20178;-52
2022/04/10 00:23:23;;;;;;;8.47;2.70;;;3.00;99.90;;;;;;5030509;28;20266;-52
2022/04/10 00:25:48;;;;;;;10.83;2.70;;;3.00;99.90;;;;;;5030515;28;21032;-53
2022/04/10 00:28:14;;;;;;;17.00;2.77;;;3.00;99.90;;;;;;5029856;28;20234;-52
2022/04/10 00:30:39;;;;;;;7.33;2.60;;;3.00;99.90;;;;;;5030425;28;20175;-53
2022/04/10 00:33:06;;;;;;;4.83;2.23;;;3.00;1.00;;;;;;5030062;28;20186;-53
2022/04/10 00:35:32;;;;;;;15.40;3.00;;;3.10;99.90;;;;;;5030020;28;20289;-51
2022/04/10 00:37:57;;;;;;;10.97;2.80;;;3.00;99.90;;;;;;5030161;28;20504;-58
2022/04/10 00:40:23;;;;;;;10.43;2.87;;;3.00;99.90;;;;;;5030668;28;20265;-52
2022/04/10 00:42:49;;;;;;;18.67;3.10;;;3.00;99.90;;;;;;5030090;28;20298;-52
2022/04/10 00:45:24;;;;;;;16.97;3.20;;;3.00;99.90;;;;;;5030442;28;20524;-51
2022/04/10 00:47:50;;;;;;;11.00;3.20;;;3.00;99.90;;;;;;5012166;28;20445;-53
2022/04/10 00:50:17;;;;;;;10.43;3.73;;;3.00;99.90;;;;;;5030772;28;20429;-53
2022/04/10 00:52:46;;;;;;;10.60;2.67;;;3.00;99.90;;;;;;5030008;28;20191;-52
2022/04/10 00:55:12;;;;;;;10.93;2.70;;;3.00;99.90;;;;;;5030019;28;20464;-48
2022/04/10 00:57:39;;;;;;;10.23;3.17;;;3.00;99.90;;;;;;5028282;28;20919;-48
2022/04/10 01:00:11;;;;;;;6.27;2.70;;;3.10;99.90;;;;;;5030429;28;20464;-48
2022/04/10 01:02:38;;;;;;;10.23;2.90;;;3.00;99.90;;;;;;5032416;28;20429;-48
2022/04/10 01:05:05;;;;;;;13.70;3.40;;;3.00;99.90;;;;;;5030097;28;20478;-48
2022/04/10 01:07:31;;;;;;;10.90;3.10;;;3.10;99.90;;;;;;5029138;28;20436;-48
2022/04/10 01:09:57;;;;;;;8.23;2.30;;;3.10;99.90;;;;;;5028869;28;20422;-48
2022/04/10 01:12:24;;;;;;;8.60;2.27;;;3.10;99.90;;;;;;5011552;28;20183;-48
2022/04/10 01:14:50;;;;;;;8.10;2.63;;;3.10;99.90;;;;;;5014714;28;20222;-48
2022/04/10 01:17:16;;;;;;;13.10;2.90;;;3.10;99.90;;;;;;5029087;28;20430;-48
2022/04/10 01:19:43;;;;;;;12.70;3.70;;;3.10;99.90;;;;;;5029688;28;20453;-48
2022/04/10 01:22:12;;;;;;;9.33;2.90;;;3.10;99.90;;;;;;5029185;28;20421;-48
2022/04/10 01:24:39;;;;;;;10.37;3.60;;;3.00;99.90;;;;;;5028481;28;20270;-48
2022/04/10 01:27:06;;;;;;;9.67;3.20;;;3.00;99.90;;;;;;5029643;28;20911;-48
2022/04/10 01:29:32;;;;;;;13.50;2.83;;;2.90;99.90;;;;;;5029108;28;20432;-48
2022/04/10 01:31:57;;;;;;;13.57;3.67;;;2.80;99.90;;;;;;5011442;28;20429;-48
2022/04/10 01:34:23;;;;;;;14.03;3.77;;;2.90;1.00;;;;;;5028824;28;20437;-48
2022/04/10 01:36:49;;;;;;;11.40;3.17;;;2.90;1.00;;;;;;5029111;28;20183;-48
2022/04/10 01:39:15;;;;;;;7.20;2.90;;;2.90;1.00;;;;;;5025152;28;20206;-48
2022/04/10 01:41:41;;;;;;;7.67;2.60;;;2.90;1.00;;;;;;5029188;28;20461;-48
2022/04/10 01:44:08;;;;;;;7.93;2.73;;;2.90;1.00;;;;;;5028545;28;20195;-48
2022/04/10 01:46:35;;;;;;;12.03;2.73;;;2.90;1.00;;;;;;5028652;28;20469;-48
2022/04/10 01:49:01;;;;;;;9.87;2.70;;;2.90;1.00;;;;;;5028944;28;20413;-48
2022/04/10 01:51:27;;;;;;;9.93;2.30;;;2.90;1.00;;;;;;5028830;28;20436;-48
2022/04/10 01:53:53;;;;;;;11.83;2.60;;;2.90;1.00;;;;;;5029462;28;21263;-48
2022/04/10 01:56:20;;;;;;;9.10;2.80;;;3.00;1.00;;;;;;5028719;28;20465;-48
2022/04/10 01:58:46;;;;;;;8.57;3.00;;;3.00;99.90;;;;;;5028595;28;20430;-48
2022/04/10 02:01:15;;;;;;;7.53;2.73;;;2.90;99.90;;;;;;5025530;28;20518;-48
2022/04/10 02:03:42;;;;;;;8.83;3.30;;;2.90;1.00;;;;;;5028905;28;20451;-50
2022/04/10 02:06:10;;;;;;;6.37;3.10;;;2.90;1.00;;;;;;5029146;28;20536;-48
2022/04/10 02:08:36;;;;;;;6.30;3.10;;;2.90;1.00;;;;;;5022820;28;20449;-48
2022/04/10 02:11:10;;;;;;;11.00;3.73;;;2.90;99.90;;;;;;5028777;28;20433;-48
2022/04/10 02:13:35;;;;;;;10.90;3.43;;;3.00;1.00;;;;;;5044149;28;20441;-48
2022/04/10 02:16:01;;;;;;;6.40;3.30;;;2.90;1.00;;;;;;5028306;28;20464;-48
2022/04/10 02:18:26;;;;;;;12.53;4.10;;;2.90;1.00;;;;;;5028673;28;20245;-48
2022/04/10 02:20:52;;;;;;;6.10;3.60;;;2.90;1.00;;;;;;5028552;28;20198;-48
2022/04/10 02:23:17;;;;;;;7.80;4.00;;;2.90;1.00;;;;;;5013779;28;20255;-48
2022/04/10 02:25:43;;;;;;;13.37;4.70;;;2.80;1.00;;;;;;5032750;28;20190;-48
2022/04/10 02:28:08;;;;;;;16.23;3.43;;;2.70;1.00;;;;;;5031845;28;20759;-48
2022/04/10 02:30:34;;;;;;;13.90;3.53;;;2.50;1.00;;;;;;5032463;28;20191;-48
2022/04/10 02:32:59;;;;;;;6.23;3.10;;;2.50;1.00;;;;;;5014200;28;20226;-48
2022/04/10 02:35:25;;;;;;;8.83;3.50;;;2.40;1.00;;;;;;5031830;28;20215;-48
2022/04/10 02:37:50;;;;;;;11.83;3.83;;;2.20;1.00;;;;;;5031624;28;20254;-48
2022/04/10 02:40:16;;;;;;;12.30;3.67;;;2.20;1.00;;;;;;5032197;28;20187;-48
2022/04/10 02:42:42;;;;;;;4.63;2.97;;;2.10;1.00;;;;;;5031506;28;20183;-49
2022/04/10 02:45:08;;;;;;;5.60;3.00;;;1.90;1.00;;;;;;5031856;28;20278;-48
2022/04/10 02:47:34;;;;;;;7.20;2.97;;;1.80;57.40;;;;;;5014136;28;20437;-49
2022/04/10 02:50:00;;;;;;;7.73;2.93;;;1.70;99.90;;;;;;5031345;28;20972;-49
2022/04/10 02:52:26;;;;;;;8.87;3.40;;;1.60;99.90;;;;;;5031855;28;20318;-49
2022/04/10 02:54:52;;;;;;;6.07;3.10;;;1.50;1.00;;;;;;5031444;28;20461;-48
2022/04/10 02:57:17;;;;;;;6.00;2.97;;;1.50;1.00;;;;;;5031631;28;20484;-49
2022/04/10 02:59:44;;;;;;;5.80;3.80;;;1.40;99.90;;;;;;5031692;28;20183;-48
2022/04/10 03:02:10;;;;;;;6.57;3.50;;;1.40;30.60;;;;;;5031724;28;20175;-49
2022/04/10 03:04:35;;;;;;;6.40;3.90;;;1.40;99.90;;;;;;5031396;28;20434;-49
2022/04/10 03:07:01;;;;;;;7.40;4.20;;;1.40;99.90;;;;;;5031337;28;20198;-49
2022/04/10 03:09:27;;;;;;;11.03;3.80;;;1.50;1.00;;;;;;5031165;28;20198;-49
2022/04/10 03:11:52;;;;;;;6.80;3.77;;;1.50;99.90;;;;;;5031464;28;20536;-49
2022/04/10 03:14:18;;;;;;;5.17;3.13;;;1.50;99.90;;;;;;5031339;28;20529;-49
2022/04/10 03:16:44;;;;;;;8.60;3.80;;;1.60;99.90;;;;;;4997379;28;20661;-49
2022/04/10 03:19:10;;;;;;;14.30;4.67;;;1.60;99.90;;;;;;5031053;28;20193;-49
2022/04/10 03:21:35;;;;;;;13.17;4.47;;;1.60;1.00;;;;;;5030747;28;20479;-49
2022/04/10 03:24:02;;;;;;;13.67;4.70;;;1.60;1.00;;;;;;5027577;28;20194;-49
2022/04/10 03:26:28;;;;;;;12.30;3.50;;;1.80;90.70;;;;;;5030595;28;20228;-49
2022/04/10 03:28:54;;;;;;;13.63;3.83;;;1.90;99.90;;;;;;5028600;28;20450;-49
2022/04/10 03:31:21;;;;;;;9.40;4.10;;;1.90;99.90;;;;;;5030523;28;20437;-49
2022/04/10 03:33:48;;;;;;;11.17;3.53;;;1.90;99.90;;;;;;5030092;28;20621;-49
2022/04/10 03:36:13;;;;;;;11.17;3.77;;;1.90;99.90;;;;;;5030914;28;20489;-49
2022/04/10 03:38:39;;;;;;;10.17;3.30;;;1.90;99.90;;;;;;5030603;28;20927;-49
2022/04/10 03:41:05;;;;;;;8.70;3.43;;;2.00;99.90;;;;;;5030834;28;20186;-49
2022/04/10 03:43:32;;;;;;;8.37;2.80;;;2.10;99.90;;;;;;5030865;28;20182;-49
2022/04/10 03:45:58;;;;;;;5.50;2.57;;;2.00;96.90;;;;;;5030877;28;20616;-49
2022/04/10 03:48:23;;;;;;;10.77;2.47;;;2.00;1.00;;;;;;5030368;28;20526;-49
2022/04/10 03:50:49;;;;;;;13.53;3.20;;;1.90;1.00;;;;;;5030653;28;20187;-49
2022/04/10 03:53:15;;;;;;;10.43;3.77;;;2.00;1.00;;;;;;5030825;28;20744;-49
2022/04/10 03:55:40;;;;;;;9.17;3.40;;;1.90;99.90;;;;;;5024002;28;20209;-48
2022/04/10 03:58:06;;;;;;;17.77;3.80;;;2.00;99.90;;;;;;5031303;28;20195;-49
2022/04/10 04:00:32;;;;;;;13.93;3.43;;;2.00;99.90;;;;;;5030440;28;20186;-49
2022/04/10 04:02:57;;;;;;;11.20;3.70;;;2.00;1.00;;;;;;5030424;28;20928;-49
2022/04/10 04:05:23;;;;;;;7.73;3.80;;;2.00;1.00;;;;;;5030338;28;20187;-49
2022/04/10 04:07:48;;;;;;;8.17;3.80;;;2.00;1.00;;;;;;5030268;28;20276;-48
2022/04/10 04:10:14;;;;;;;5.93;3.97;;;2.00;99.90;;;;;;5012952;28;20187;-49
2022/04/10 04:12:40;;;;;;;13.83;4.20;;;2.00;99.90;;;;;;5027178;28;20190;-49
2022/04/10 04:15:06;;;;;;;11.43;4.40;;;2.00;99.90;;;;;;5012215;28;20211;-49
2022/04/10 04:17:32;;;;;;;11.47;4.20;;;2.00;99.90;;;;;;5027512;28;20207;-49
2022/04/10 04:19:58;;;;;;;18.13;4.70;;;2.00;1.00;;;;;;4995580;28;21148;-49
2022/04/10 04:22:24;;;;;;;13.70;4.50;;;2.00;99.90;;;;;;5030176;28;20652;-49
2022/04/10 04:24:50;;;;;;;12.60;4.30;;;2.00;21.10;;;;;;5030109;28;20743;-49
2022/04/10 04:27:15;;;;;;;11.43;4.30;;;2.10;1.00;;;;;;5029763;28;20491;-49
2022/04/10 04:29:41;;;;;;;13.27;4.20;;;2.10;1.00;;;;;;5023863;28;20304;-49
2022/04/10 04:32:07;;;;;;;8.43;4.03;;;2.20;1.00;;;;;;5030773;28;20194;-49
2022/04/10 04:34:33;;;;;;;14.87;4.03;;;2.20;1.00;;;;;;5029815;28;20294;-49
2022/04/10 04:36:58;;;;;;;10.30;4.00;;;2.20;99.90;;;;;;5030134;28;20528;-49
2022/04/10 04:39:24;;;;;;;16.90;4.77;;;2.20;80.50;;;;;;5011972;28;20607;-49
2022/04/10 04:41:50;;;;;;;22.23;4.37;;;2.20;99.90;;;;;;5029815;28;20194;-48
2022/04/10 04:44:16;;;;;;;13.37;3.63;;;2.20;99.90;;;;;;5029237;28;20210;-49
2022/04/10 04:46:42;;;;;;;14.17;4.50;;;2.20;1.00;;;;;;5028841;28;20226;-49
2022/04/10 04:49:08;;;;;;;12.27;3.40;;;2.20;1.00;;;;;;5028872;28;20430;-49
2022/04/10 04:51:36;;;;;;;12.43;4.43;;;2.30;1.00;;;;;;5011872;28;20211;-48
2022/04/10 04:54:02;;;;;;;11.83;4.00;;;2.40;1.00;;;;;;5029303;28;20501;-48
2022/04/10 04:56:27;;;;;;;17.20;4.47;;;2.40;99.90;;;;;;5029733;28;21049;-48
2022/04/10 04:58:54;;;;;;;13.23;4.70;;;2.40;99.90;;;;;;5028878;28;20468;-49
2022/04/10 05:01:19;;;;;;;14.30;5.07;;;2.40;1.00;;;;;;5029203;28;20230;-49
2022/04/10 05:03:45;;;;;;;23.57;5.40;;;2.40;99.90;;;;;;5029106;28;20457;-48
2022/04/10 05:06:10;;;;;;;18.20;5.97;;;2.50;99.90;;;;;;5029169;28;20188;-48
2022/04/10 05:08:36;;;;;;;20.77;5.70;;;2.50;99.90;;;;;;5029243;28;20203;-49
2022/04/10 05:11:01;;;;;;;22.90;5.10;;;2.50;1.00;;;;;;5011555;28;20202;-49
2022/04/10 05:13:27;;;;;;;15.40;5.03;;;2.60;99.90;;;;;;5029253;28;20182;-49
2022/04/10 05:15:54;;;;;;;15.63;4.20;;;2.50;9.20;;;;;;5029184;28;20672;-49
2022/04/10 05:18:20;;;;;;;14.47;4.90;;;2.60;99.90;;;;;;5029161;28;20175;-48
2022/04/10 05:20:46;;;;;;;19.10;5.57;;;2.60;1.00;;;;;;5029240;28;20459;-48
2022/04/10 05:23:16;;;;;;;16.40;4.83;;;2.60;99.90;;;;;;5029470;28;20614;-48
2022/04/10 05:25:42;;;;;;;14.50;4.63;;;2.60;1.00;;;;;;5025359;28;20500;-49
2022/04/10 05:28:08;;;;;;;19.37;5.00;;;2.70;99.90;;;;;;5028612;28;20520;-49
2022/04/10 05:30:34;;;;;;;20.77;5.27;;;2.70;99.90;;;;;;5028977;28;20432;-48
2022/04/10 05:33:00;;;;;;;24.10;4.73;;;2.70;1.00;;;;;;5011384;28;20517;-48
2022/04/10 05:35:26;;;;;;;20.80;5.07;;;2.80;99.90;;;;;;5029223;28;20238;-48
2022/04/10 05:37:51;;;;;;;16.30;4.43;;;2.80;19.40;;;;;;5028406;28;20440;-49
2022/04/10 05:40:17;;;;;;;16.77;5.17;;;2.90;75.60;;;;;;5029339;28;20707;-49
2022/04/10 05:42:46;;;;;;;18.73;5.17;;;3.00;1.00;;;;;;5011200;28;20183;-49
2022/04/10 05:45:12;;;;;;;24.17;4.53;;;3.00;2.00;;;;;;5029139;28;20201;-49
2022/04/10 05:47:39;;;;;;;12.27;4.10;;;3.10;1.00;;;;;;5023310;28;20461;-48
2022/04/10 05:50:05;;;;;;;13.73;4.50;;;3.10;99.90;;;;;;5030474;28;20190;-48
2022/04/10 05:52:31;;;;;;;13.37;4.50;;;3.20;99.90;;;;;;5028678;28;20433;-49
2022/04/10 05:54:59;;;;;;;20.37;4.70;;;3.30;1.00;;;;;;5028605;28;20462;-49
2022/04/10 05:57:25;;;;;;;19.67;4.53;;;3.30;1.00;;;;;;5031499;28;20187;-48
2022/04/10 05:59:52;;;;;;;13.93;4.43;;;3.30;1.00;;;;;;5032773;28;20479;-48
2022/04/10 06:02:18;;;;;;;17.50;5.23;;;3.30;1.00;;;;;;5032419;28;20440;-48
2022/04/10 06:04:43;;;;;;;14.53;4.33;;;3.40;1.00;;;;;;5032486;28;20421;-48
2022/04/10 06:07:09;;;;;;;16.37;4.23;;;3.40;1.00;;;;;;5032433;28;20203;-48
2022/04/10 06:09:34;;;;;;;18.23;4.17;;;3.40;99.90;;;;;;5032806;28;20629;-48
2022/04/10 06:12:00;;;;;;;10.40;4.00;;;3.40;99.90;;;;;;5031313;28;20187;-48
2022/04/10 06:14:25;;;;;;;15.23;3.37;;;3.50;99.90;;;;;;5032429;28;20199;-48
2022/04/10 06:16:51;;;;;;;16.00;3.40;;;3.50;99.90;;;;;;5032528;28;20174;-48
2022/04/10 06:19:18;;;;;;;11.30;3.43;;;3.70;99.90;;;;;;5014819;28;20179;-48
2022/04/10 06:21:44;;;;;;;7.87;2.90;;;3.80;99.90;;;;;;5032516;28;20167;-49
2022/04/10 06:24:09;;;;;;;11.30;3.47;;;3.90;99.90;;;;;;5032098;28;20440;-49
2022/04/10 06:26:35;;;;;;;10.27;2.83;;;3.90;99.90;;;;;;5031711;28;20422;-48
2022/04/10 06:29:01;;;;;;;9.27;3.30;;;3.90;51.60;;;;;;5031934;28;20199;-49
2022/04/10 06:31:26;;;;;;;9.03;2.70;;;3.90;8.50;;;;;;5031487;28;20183;-48
2022/04/10 06:33:54;;;;;;;7.40;2.20;;;3.80;11.10;;;;;;5032300;28;20991;-48
2022/04/10 06:36:19;;;;;;;9.10;2.13;;;3.60;1.00;;;;;;5032313;28;20269;-49
2022/04/10 06:38:45;;;;;;;5.80;1.83;;;3.50;1.00;;;;;;5031981;28;20426;-48
2022/04/10 06:41:13;;;;;;;15.97;2.93;;;3.40;1.00;;;;;;5032398;28;20853;-51
2022/04/10 06:43:39;;;;;;;11.30;2.67;;;3.50;14.10;;;;;;5033704;28;20243;-48
2022/04/10 06:46:04;;;;;;;14.47;2.87;;;3.70;9.60;;;;;;5032393;28;20504;-48
2022/04/10 06:48:31;;;;;;;7.90;2.60;;;3.80;17.80;;;;;;5032038;28;20175;-48
2022/04/10 06:50:56;;;;;;;3.63;2.13;;;3.90;1.00;;;;;;5031753;28;20186;-49
2022/04/10 06:53:22;;;;;;;6.00;2.40;;;3.90;1.00;;;;;;5013779;28;20452;-48
2022/04/10 06:55:49;;;;;;;12.60;2.43;;;4.00;1.00;;;;;;4997574;28;20225;-48
2022/04/10 06:58:16;;;;;;;12.00;3.20;;;4.10;1.00;;;;;;5031124;28;20221;-51
2022/04/10 07:00:42;;;;;;;6.40;2.50;;;4.20;1.00;;;;;;5032214;28;20942;-49
2022/04/10 07:03:08;;;;;;;10.63;3.00;;;4.20;1.00;;;;;;5031613;28;20518;-53
2022/04/10 07:05:33;;;;;;;12.97;4.20;;;4.30;1.00;;;;;;5031113;28;20280;-49
2022/04/10 07:07:59;;;;;;;8.80;3.77;;;4.40;1.00;;;;;;5031598;28;20266;-48
2022/04/10 07:10:25;;;;;;;13.37;4.60;;;4.50;1.00;;;;;;5031822;28;20297;-48
2022/04/10 07:12:50;;;;;;;17.60;4.60;;;4.60;1.00;;;;;;5033863;28;20183;-48
2022/04/10 07:15:18;;;;;;;11.17;4.00;;;4.90;1.00;;;;;;5031373;28;20210;-48
2022/04/10 07:17:44;;;;;;;12.80;4.50;;;5.40;1.00;;;;;;4997488;28;20195;-48
2022/04/10 07:20:09;;;;;;;16.37;3.87;;;5.90;1.00;;;;;;5012621;28;20794;-48
2022/04/10 07:25:21;;;;;;;14.70;3.50;;;6.60;1.00;;;;;;5031032;28;20456;-49
2022/04/10 07:27:47;;;;;;;14.50;3.43;;;6.90;1.00;;;;;;5013857;28;20559;-48
2022/04/10 07:30:12;;;;;;;15.77;3.10;;;7.10;1.00;;;;;;5031888;28;20935;-48
2022/04/10 07:32:39;;;;;;;6.50;2.53;;;7.30;1.00;;;;;;5014312;28;20175;-48
2022/04/10 07:35:05;;;;;;;14.87;3.33;;;7.30;1.00;;;;;;5030426;28;20602;-48
2022/04/10 07:37:31;;;;;;;12.33;3.43;;;7.60;1.00;;;;;;5021587;28;20771;-48
2022/04/10 07:39:57;;;;;;;13.60;3.10;;;7.90;99.90;;;;;;5031959;28;20737;-48
2022/04/10 07:42:23;;;;;;;9.70;2.93;;;7.80;99.90;;;;;;5032078;28;20404;-48
2022/04/10 07:44:48;;;;;;;12.97;3.03;;;7.40;99.90;;;;;;5032119;28;20441;-48
2022/04/10 07:47:26;;;;;;;10.87;3.30;;;7.00;99.90;;;;;;5031620;28;20231;-48
2022/04/10 07:49:53;;;;;;;6.50;2.80;;;6.80;1.00;;;;;;5031647;28;20190;-48
2022/04/10 07:52:20;;;;;;;9.77;2.83;;;7.30;1.00;;;;;;5031529;28;20547;-48
2022/04/10 07:54:45;;;;;;;15.67;3.87;;;7.80;99.90;;;;;;5031239;28;20457;-47
2022/04/10 07:57:11;;;;;;;15.33;2.70;;;8.10;99.90;;;;;;5031728;28;21183;-47
2022/04/10 07:59:36;;;;;;;7.90;2.80;;;8.50;99.90;;;;;;5013589;28;20198;-48
2022/04/10 08:02:03;;;;;;;11.30;3.50;;;9.00;99.90;;;;;;5031465;28;20221;-48
2022/04/10 08:04:28;;;;;;;11.67;2.67;;;9.70;99.90;;;;;;5031356;28;20266;-51
2022/04/10 08:06:54;;;;;;;10.17;2.77;;;9.60;99.90;;;;;;5013445;28;20898;-50
2022/04/10 08:09:20;;;;;;;13.70;3.27;;;9.10;99.90;;;;;;5030902;28;20217;-51
2022/04/10 08:11:45;;;;;;;10.73;3.50;;;8.40;99.90;;;;;;5021484;28;20664;-51
2022/04/10 08:14:11;;;;;;;18.37;4.00;;;7.80;99.90;;;;;;5014367;28;20194;-51
2022/04/10 08:16:36;;;;;;;15.03;3.60;;;7.00;99.90;;;;;;5027309;28;20289;-52
2022/04/10 08:19:02;;;;;;;6.93;2.53;;;6.50;99.90;;;;;;5026885;28;20251;-52
2022/04/10 08:21:27;;;;;;;6.00;2.70;;;5.80;99.90;;;;;;5029966;28;20282;-53
2022/04/10 08:23:53;;;;;;;6.13;3.20;;;5.10;1.00;;;;;;5028494;28;20179;-52
2022/04/10 08:26:18;;;;;;;10.03;3.57;;;4.70;1.00;;;;;;5010723;28;20186;-52
2022/04/10 08:28:44;;;;;;;6.73;3.10;;;5.10;1.00;;;;;;5027531;28;20198;-50
2022/04/10 08:31:09;;;;;;;16.37;3.17;;;6.00;1.00;;;;;;5028853;28;20199;-52
2022/04/10 08:33:35;;;;;;;8.90;2.20;;;6.80;1.00;;;;;;5029370;28;20221;-52
2022/04/10 08:36:00;;;;;;;8.13;2.50;;;7.50;1.00;;;;;;5028895;28;20574;-51
2022/04/10 08:38:26;;;;;;;9.95;2.90;;;8.20;99.90;;;;;;5008797;28;20445;-50
2022/04/10 08:41:03;;;;;;;6.93;2.30;;;8.80;99.90;;;;;;5027110;28;20179;-51
2022/04/10 08:43:30;;;;;;;9.70;3.50;;;9.10;99.90;;;;;;5009417;28;20199;-50
2022/04/10 08:45:57;;;;;;;10.10;2.13;;;9.40;99.90;;;;;;5004921;28;21246;-50
2022/04/10 08:48:26;;;;;;;13.17;2.70;;;9.70;99.90;;;;;;5019579;28;20445;-51
2022/04/10 08:50:56;;;;;;;3.97;1.83;;;10.00;99.90;;;;;;5030873;28;20517;-51
2022/04/10 08:53:23;;;;;;;10.43;2.40;;;10.20;99.90;;;;;;5030982;28;20470;-50
2022/04/10 08:55:49;;;;;;;6.23;2.10;;;10.50;99.90;;;;;;5031568;28;20465;-50
2022/04/10 08:58:15;;;;;;;4.80;1.63;;;10.50;99.90;;;;;;5030641;28;20449;-51
2022/04/10 09:00:44;;;;;;;8.40;1.70;;;10.40;99.90;;;;;;5029161;28;20699;-51
2022/04/10 09:03:11;;;;;;;6.70;1.90;;;10.30;99.90;;;;;;5029055;28;20247;-51
2022/04/10 09:05:45;;;;;;;8.13;1.90;;;10.40;99.90;;;;;;5028405;28;20906;-51
2022/04/10 09:08:14;;;;;;;9.40;2.00;;;10.40;99.90;;;;;;5032441;28;20427;-51
2022/04/10 09:11:03;;;;;;;8.00;1.80;;;10.40;99.90;;;;;;5013875;28;20300;-52
2022/04/10 09:13:36;;;;;;;5.27;1.30;;;10.50;99.90;;;;;;5031769;28;20520;-51
2022/04/10 09:16:02;;;;;;;7.50;1.80;;;10.40;99.90;;;;;;5030699;28;20524;-51
2022/04/10 09:18:28;;;;;;;10.10;2.27;;;10.10;99.90;;;;;;5031425;28;20915;-50
2022/04/10 09:21:07;;;;;;;7.70;1.87;;;10.10;99.90;;;;;;5015764;28;20191;-51
2022/04/10 09:23:33;;;;;;;13.50;2.10;;;10.00;99.90;;;;;;5011366;28;20461;-51
2022/04/10 09:25:59;;;;;;;8.80;2.30;;;10.00;99.90;;;;;;5029241;28;20528;-50
2022/04/10 09:28:47;;;;;;;7.63;1.80;;;10.00;99.90;;;;;;5028384;28;20429;-50
2022/04/10 09:31:30;;;;;;;8.43;2.10;;;9.70;99.90;;;;;;5031434;28;20448;-51
2022/04/10 09:33:58;;;;;;;14.57;2.70;;;9.30;99.90;;;;;;5034445;28;20195;-50
2022/04/10 09:36:33;;;;;;;8.40;2.00;;;9.30;99.90;;;;;;5035366;28;20536;-49
2022/04/10 09:38:59;;;;;;;11.87;2.10;;;9.40;99.90;;;;;;5035412;28;20229;-50
2022/04/10 09:41:25;;;;;;;12.23;2.13;;;9.20;99.90;;;;;;5034699;28;20441;-51
2022/04/10 09:43:51;;;;;;;11.50;2.50;;;8.90;99.90;;;;;;5032809;28;20942;-50
2022/04/10 09:46:16;;;;;;;11.17;2.10;;;8.90;99.90;;;;;;5026394;28;20312;-50
2022/04/10 09:48:42;;;;;;;9.70;2.80;;;9.30;99.90;;;;;;5031194;28;20270;-49
2022/04/10 09:51:11;;;;;;;9.10;1.83;;;9.60;99.90;;;;;;5028578;28;20599;-49
2022/04/10 09:53:37;;;;;;;8.43;2.00;;;9.90;99.90;;;;;;5033280;28;20194;-50
2022/04/10 09:56:04;;;;;;;9.23;2.53;;;10.00;99.90;;;;;;5030263;28;20460;-51
2022/04/10 09:58:31;;;;;;;10.87;2.43;;;9.80;99.90;;;;;;5035248;28;20442;-50
2022/04/10 10:00:59;;;;;;;8.57;1.80;;;9.80;99.90;;;;;;5033619;28;20434;-50
2022/04/10 10:03:29;;;;;;;13.90;2.20;;;9.50;99.90;;;;;;5034104;28;20843;-51
2022/04/10 10:05:58;;;;;;;10.03;2.43;;;9.60;99.90;;;;;;5034488;28;20445;-51
2022/04/10 10:08:25;;;;;;;8.73;1.47;;;9.40;99.90;;;;;;5032770;28;20437;-50
2022/04/10 10:10:51;;;;;;;3.60;1.50;;;9.50;99.90;;;;;;5033851;28;20444;-55
2022/04/10 10:13:17;;;;;;;5.80;1.50;;;9.40;99.90;;;;;;5012607;28;20778;-50
2022/04/10 10:15:44;;;;;;;16.70;2.57;;;9.20;99.90;;;;;;5032890;28;20954;-50
2022/04/10 10:18:13;;;;;;;5.33;1.63;;;9.60;99.90;;;;;;5033798;28;20437;-49
2022/04/10 10:20:40;;;;;;;4.60;1.70;;;9.90;99.90;;;;;;5033728;28;20550;-50
2022/04/10 10:23:14;;;;;;;6.73;2.10;;;10.00;99.90;;;;;;5034202;28;20906;-50
2022/04/10 10:25:46;;;;;;;7.90;1.43;;;10.10;99.90;;;;;;5034306;28;20448;-50
2022/04/10 10:28:27;;;;;;;7.17;1.80;;;10.40;99.90;;;;;;5033497;28;20437;-50
2022/04/10 10:31:07;;;;;;;7.60;1.60;;;10.40;99.90;;;;;;5030533;28;20441;-50
2022/04/10 10:33:34;;;;;;;7.60;1.87;;;10.00;99.90;;;;;;5031825;28;20448;-50
2022/04/10 10:36:02;;;;;;;6.83;2.23;;;9.70;99.90;;;;;;5029933;28;20498;-50
2022/04/10 10:38:30;;;;;;;12.90;2.13;;;9.20;99.90;;;;;;5033549;28;20429;-49
2022/04/10 10:41:12;;;;;;;14.87;2.10;;;8.60;99.90;;;;;;5029013;28;20927;-50
2022/04/10 10:43:37;;;;;;;9.63;2.10;;;8.90;99.90;;;;;;5011895;28;20437;-50
2022/04/10 10:46:18;;;;;;;13.13;1.93;;;9.60;99.90;;;;;;5012816;28;20731;-50
2022/04/10 10:48:43;;;;;;;10.67;2.07;;;10.10;99.90;;;;;;5025991;28;20233;-50
2022/04/10 10:51:09;;;;;;;11.53;2.73;;;10.60;99.90;;;;;;5030045;28;20840;-50
2022/04/10 10:53:52;;;;;;;6.10;1.83;;;10.40;99.90;;;;;;5024356;28;20433;-50
2022/04/10 10:56:29;;;;;;;7.80;1.77;;;10.70;99.90;;;;;;5032322;28;20226;-50
2022/04/10 10:59:15;;;;;;;7.67;1.30;;;10.90;99.90;;;;;;5032171;28;20428;-50
2022/04/10 11:01:52;;;;;;;11.90;1.97;;;10.50;99.90;;;;;;5014392;28;20436;-50
2022/04/10 11:04:22;;;;;;;6.97;1.73;;;10.00;99.90;;;;;;5032109;28;20425;-50
2022/04/10 11:06:48;;;;;;;6.80;1.93;;;10.00;99.90;;;;;;5032390;28;20429;-50
2022/04/10 11:09:51;;;;;;;5.93;2.00;;;10.30;99.90;;;;;;5034316;28;20424;-56
2022/04/10 11:12:19;;;;;;;10.47;1.93;;;10.80;99.90;;;;;;5020738;28;20763;-49
2022/04/10 11:14:48;;;;;;;3.73;1.97;;;11.50;99.90;;;;;;5032555;28;20437;-51
2022/04/10 11:17:16;;;;;;;10.97;2.03;;;11.70;99.90;;;;;;5025697;28;20942;-49
2022/04/10 11:19:45;;;;;;;10.50;2.50;;;11.60;99.90;;;;;;5028432;28;20430;-50
2022/04/10 11:22:25;;;;;;;6.00;1.77;;;11.00;99.90;;;;;;5031015;28;20430;-51
2022/04/10 11:24:57;;;;;;;9.03;2.17;;;9.90;99.90;;;;;;5025977;28;20445;-50
2022/04/10 11:27:47;;;;;;;8.47;2.73;;;8.60;99.90;;;;;;5028883;28;20430;-51
2022/04/10 11:30:19;;;;;;;17.70;2.80;;;7.40;99.90;;;;;;5029028;28;20912;-50
2022/04/10 11:32:47;;;;;;;5.80;2.30;;;6.50;99.90;;;;;;5029739;28;20426;-57
2022/04/10 11:35:25;;;;;;;7.03;1.90;;;6.00;99.90;;;;;;5030816;28;20457;-51
2022/04/10 11:37:53;;;;;;;14.60;2.30;;;5.90;1.00;;;;;;5029780;28;20464;-51
2022/04/10 11:40:30;;;;;;;13.07;2.80;;;5.90;1.00;;;;;;5030532;28;20425;-51
2022/04/10 11:42:57;;;;;;;10.63;1.90;;;6.10;1.00;;;;;;5029461;28;20421;-50
2022/04/10 11:45:27;;;;;;;10.07;2.00;;;6.70;99.90;;;;;;5029880;28;21049;-50
2022/04/10 11:47:54;;;;;;;6.70;1.73;;;7.80;99.90;;;;;;5029645;28;20437;-50
2022/04/10 11:50:20;;;;;;;7.93;1.90;;;9.00;99.90;;;;;;5029223;28;20441;-50
2022/04/10 11:53:06;;;;;;;4.53;1.90;;;10.10;99.90;;;;;;5030034;28;20418;-50
2022/04/10 11:55:42;;;;;;;14.03;2.90;;;10.90;99.90;;;;;;5032274;28;20481;-51
2022/04/10 11:58:26;;;;;;;8.90;2.27;;;11.40;99.90;;;;;;5030421;28;20929;-50
2022/04/10 12:00:52;;;;;;;9.90;2.03;;;11.90;99.90;;;;;;5017058;28;20435;-49
2022/04/10 12:03:20;;;;;;;5.80;2.00;;;12.20;99.90;;;;;;5021485;28;20916;-50
2022/04/10 12:05:46;;;;;;;8.87;2.00;;;12.20;99.90;;;;;;5028174;28;20549;-50
2022/04/10 12:08:12;;;;;;;8.23;1.70;;;12.40;99.90;;;;;;5024318;28;20532;-51
2022/04/10 12:10:38;;;;;;;7.40;1.90;;;12.40;99.90;;;;;;5028580;28;20429;-51
2022/04/10 12:13:05;;;;;;;5.30;1.60;;;12.30;99.90;;;;;;5025815;28;21034;-49
2022/04/10 12:15:32;;;;;;;6.40;1.87;;;12.60;99.90;;;;;;5024814;28;20211;-50
2022/04/10 12:18:13;;;;;;;11.73;1.93;;;13.00;99.90;;;;;;5028415;28;20441;-53
2022/04/10 12:20:42;;;;;;;9.50;2.03;;;13.40;99.90;;;;;;5027039;28;20429;-50
2022/04/10 12:23:24;;;;;;;8.87;3.33;;;13.40;99.90;;;;;;5023493;28;20483;-50
2022/04/10 12:25:51;;;;;;;13.30;5.40;;;13.40;99.90;;;;;;5027476;28;21289;-50
2022/04/10 12:28:18;;;;;;;6.37;2.63;;;13.60;99.90;;;;;;5033403;28;20799;-52
2022/04/10 12:30:43;;;;;;;12.73;10.30;;;13.50;99.90;;;;;;5028997;28;20491;-51
2022/04/10 12:33:10;;;;;;;8.57;5.10;;;12.90;99.90;;;;;;5013231;28;20445;-50
2022/04/10 12:35:37;;;;;;;5.23;1.90;;;12.10;99.90;;;;;;5029452;28;20238;-50
2022/04/10 12:38:03;;;;;;;12.83;3.97;;;10.80;99.90;;;;;;5029435;28;20807;-50
2022/04/10 12:40:29;;;;;;;9.50;1.90;;;10.20;99.90;;;;;;5032134;28;20433;-51
2022/04/10 12:43:03;;;;;;;5.60;2.07;;;9.50;99.90;;;;;;5029002;28;21047;-50
2022/04/10 12:45:30;;;;;;;12.70;2.00;;;8.90;99.90;;;;;;5028693;28;20205;-50
2022/04/10 12:47:56;;;;;;;11.47;2.20;;;8.20;99.90;;;;;;5033512;28;20440;-51
2022/04/10 12:50:25;;;;;;;9.40;2.33;;;8.40;99.90;;;;;;5029791;28;20431;-50
2022/04/10 12:52:57;;;;;;;10.40;2.30;;;9.20;99.90;;;;;;5028089;28;20437;-50
2022/04/10 12:55:30;;;;;;;5.97;1.73;;;10.10;99.90;;;;;;5025890;28;20469;-51
2022/04/10 12:58:00;;;;;;;9.73;1.90;;;10.70;99.90;;;;;;5029324;28;20866;-50